Time;durP1;ratioP1;P1;durP2;ratioP2;P2;SDS_P1;SDS_P2;PMS_P1;PMS_P2;Temp;Humidity;BMP_temperature;BMP_pressure;BME280_temperature;BME280_humidity;BME280_pressure;Samples;Min_cycle;Max_cycle;Signal;HPM_P1;HPM_P2
2024/03/04 00:02:15;0.00;0.00;0.62;0.00;0.00;0.62;5.33;4.63;;;25.10;23.80;;;;;;2264285;61;20845;-67
2024/03/04 00:05:00;0.00;0.00;0.62;0.00;0.00;0.62;6.60;5.60;;;25.00;23.70;;;;;;2264408;61;20464;-68
2024/03/04 00:07:45;0.00;0.00;0.62;0.00;0.00;0.62;5.03;4.27;;;25.00;23.70;;;;;;2258361;61;20922;-67
2024/03/04 00:10:32;0.00;0.00;0.62;0.00;0.00;0.62;5.33;4.83;;;25.00;23.70;;;;;;2264695;61;20514;-67
2024/03/04 00:13:17;0.00;0.00;0.62;0.00;0.00;0.62;5.67;4.90;;;25.00;23.70;;;;;;2264384;61;20482;-67
2024/03/04 00:16:05;0.00;0.00;0.62;0.00;0.00;0.62;5.70;4.97;;;25.00;23.70;;;;;;2264522;61;20426;-68
2024/03/04 00:18:49;0.00;0.00;0.62;0.00;0.00;0.62;6.57;5.80;;;25.00;23.70;;;;;;2547660;45;20431;-67
2024/03/04 00:21:34;0.00;0.00;0.62;0.00;0.00;0.62;7.60;6.13;;;25.00;23.80;;;;;;2260430;61;20397;-67
2024/03/04 00:24:19;0.00;0.00;0.62;0.00;0.00;0.62;7.23;6.13;;;25.00;23.80;;;;;;2261637;61;20410;-68
2024/03/04 00:27:06;0.00;0.00;0.62;0.00;0.00;0.62;9.23;7.50;;;25.00;23.80;;;;;;2264670;61;20778;-68
2024/03/04 00:29:51;0.00;0.00;0.62;0.00;0.00;0.62;10.80;9.00;;;25.00;23.80;;;;;;2264451;61;20410;-67
2024/03/04 00:32:36;0.00;0.00;0.62;0.00;0.00;0.62;12.43;9.17;;;25.00;23.80;;;;;;2264360;61;20375;-68
2024/03/04 00:35:21;0.00;0.00;0.62;0.00;0.00;0.62;15.20;10.00;;;25.00;23.80;;;;;;2264194;61;20396;-67
2024/03/04 00:38:05;0.00;0.00;0.62;0.00;0.00;0.62;12.77;11.40;;;24.90;23.70;;;;;;2264502;61;20364;-67
2024/03/04 00:40:49;0.00;0.00;0.62;0.00;0.00;0.62;13.30;11.90;;;24.90;23.70;;;;;;2668218;45;20447;-67
2024/03/04 00:43:36;0.00;0.00;0.62;0.00;0.00;0.62;12.30;9.90;;;24.90;23.70;;;;;;2260555;61;20755;-67
2024/03/04 00:46:22;0.00;0.00;0.62;0.00;0.00;0.62;12.30;9.83;;;24.90;23.70;;;;;;2261178;61;20392;-68
2024/03/04 00:49:08;0.00;0.00;0.62;0.00;0.00;0.62;11.50;10.30;;;24.90;23.70;;;;;;2264575;61;20356;-67
2024/03/04 00:51:54;0.00;0.00;0.62;0.00;0.00;0.62;13.37;10.67;;;24.90;23.70;;;;;;2264572;61;20487;-67
2024/03/04 00:54:40;0.00;0.00;0.62;0.00;0.00;0.62;14.40;12.37;;;24.90;23.70;;;;;;2264183;61;20380;-67
2024/03/04 00:57:25;0.00;0.00;0.62;0.00;0.00;0.62;11.77;9.93;;;24.90;23.70;;;;;;2264658;61;20376;-67
2024/03/04 01:00:14;0.00;0.00;0.62;0.00;0.00;0.62;13.17;10.70;;;24.90;23.70;;;;;;2264478;61;20966;-67
2024/03/04 01:02:59;0.00;0.00;0.62;0.00;0.00;0.62;10.47;9.27;;;24.90;23.70;;;;;;2264427;61;20937;-67
2024/03/04 01:05:43;0.00;0.00;0.62;0.00;0.00;0.62;12.20;10.20;;;24.90;23.70;;;;;;2264490;61;20411;-67
2024/03/04 01:08:28;0.00;0.00;0.62;0.00;0.00;0.62;11.77;8.97;;;24.90;23.70;;;;;;2264129;61;20356;-67
2024/03/04 01:11:13;0.00;0.00;0.62;0.00;0.00;0.62;11.60;10.00;;;24.90;23.70;;;;;;2264557;61;20341;-67
2024/03/04 01:13:59;0.00;0.00;0.62;0.00;0.00;0.62;11.63;9.57;;;24.90;23.70;;;;;;2261202;61;20364;-67
2024/03/04 01:16:48;0.00;0.00;0.62;0.00;0.00;0.62;11.60;9.63;;;24.80;23.60;;;;;;2264180;61;20478;-67
2024/03/04 01:19:33;0.00;0.00;0.62;0.00;0.00;0.62;11.13;9.57;;;24.80;23.60;;;;;;2263944;61;20364;-67
2024/03/04 01:22:18;0.00;0.00;0.62;0.00;0.00;0.62;11.00;9.30;;;24.80;23.60;;;;;;2261292;61;20371;-67
2024/03/04 01:25:03;0.00;0.00;0.62;0.00;0.00;0.62;10.13;9.13;;;24.80;23.60;;;;;;2264030;61;20466;-67
2024/03/04 01:27:48;0.00;0.00;0.62;0.00;0.00;0.62;10.07;8.23;;;24.80;23.60;;;;;;2264300;61;20418;-66
2024/03/04 01:30:33;0.00;0.00;0.62;0.00;0.00;0.62;11.37;9.50;;;24.80;23.60;;;;;;2664168;45;20363;-67
2024/03/04 01:33:19;0.00;0.00;0.62;0.00;0.00;0.62;8.90;7.87;;;24.80;23.60;;;;;;2261278;61;20385;-67
2024/03/04 01:36:04;0.00;0.00;0.62;0.00;0.00;0.62;9.17;8.20;;;24.80;23.60;;;;;;2264242;61;20537;-67
2024/03/04 01:38:49;0.00;0.00;0.62;0.00;0.00;0.62;10.63;8.80;;;24.80;23.60;;;;;;2264178;61;20360;-67
2024/03/04 01:41:36;0.00;0.00;0.62;0.00;0.00;0.62;10.17;8.90;;;24.80;23.60;;;;;;2264568;61;20458;-67
2024/03/04 01:44:21;0.00;0.00;0.62;0.00;0.00;0.62;9.80;8.50;;;24.80;23.60;;;;;;2264112;61;20368;-67
2024/03/04 01:47:10;0.00;0.00;0.62;0.00;0.00;0.62;10.43;9.27;;;24.80;23.60;;;;;;2263844;61;20436;-67
2024/03/04 01:49:57;0.00;0.00;0.62;0.00;0.00;0.62;12.40;11.00;;;24.80;23.60;;;;;;2264015;61;20387;-67
2024/03/04 01:52:42;0.00;0.00;0.62;0.00;0.00;0.62;13.80;9.57;;;24.70;23.50;;;;;;2264129;61;20781;-67
2024/03/04 01:55:31;0.00;0.00;0.62;0.00;0.00;0.62;13.90;11.33;;;24.80;23.60;;;;;;2264610;61;20391;-67
2024/03/04 01:58:17;0.00;0.00;0.62;0.00;0.00;0.62;12.60;11.10;;;24.80;23.60;;;;;;2261241;61;20411;-67
2024/03/04 02:01:05;0.00;0.00;0.62;0.00;0.00;0.62;13.53;10.60;;;24.80;23.60;;;;;;2263899;61;20380;-67
2024/03/04 02:03:50;0.00;0.00;0.62;0.00;0.00;0.62;11.80;10.60;;;24.70;23.50;;;;;;2260973;61;20767;-67
2024/03/04 02:06:37;0.00;0.00;0.62;0.00;0.00;0.62;12.97;11.17;;;24.70;23.50;;;;;;2264155;61;20414;-67
2024/03/04 02:09:26;0.00;0.00;0.62;0.00;0.00;0.62;13.87;10.80;;;24.70;23.50;;;;;;2264157;61;20368;-67
2024/03/04 02:12:11;0.00;0.00;0.62;0.00;0.00;0.62;14.17;11.40;;;24.70;23.50;;;;;;2261084;61;20344;-67
2024/03/04 02:14:55;0.00;0.00;0.62;0.00;0.00;0.62;14.13;11.00;;;24.70;23.50;;;;;;2263926;61;20564;-67
2024/03/04 02:17:40;0.00;0.00;0.62;0.00;0.00;0.62;14.00;11.37;;;24.70;23.50;;;;;;2264241;61;20340;-67
2024/03/04 02:20:25;0.00;0.00;0.62;0.00;0.00;0.62;13.83;11.27;;;24.70;23.50;;;;;;2264036;61;20439;-67
2024/03/04 02:23:12;0.00;0.00;0.62;0.00;0.00;0.62;12.20;10.20;;;24.70;23.50;;;;;;2261579;61;20465;-67
2024/03/04 02:25:57;0.00;0.00;0.62;0.00;0.00;0.62;12.07;10.07;;;24.70;23.50;;;;;;2264101;61;20821;-67
2024/03/04 02:28:42;0.00;0.00;0.62;0.00;0.00;0.62;13.07;9.73;;;24.70;23.50;;;;;;2263139;61;20368;-67
2024/03/04 02:31:29;0.00;0.00;0.62;0.00;0.00;0.62;13.10;10.20;;;24.70;23.50;;;;;;2263133;61;20355;-67
2024/03/04 02:34:14;0.00;0.00;0.62;0.00;0.00;0.62;11.73;10.30;;;24.70;23.50;;;;;;2263941;61;20415;-67
2024/03/04 02:36:59;0.00;0.00;0.62;0.00;0.00;0.62;11.77;9.57;;;24.70;23.50;;;;;;2260550;61;20400;-66
2024/03/04 02:39:47;0.00;0.00;0.62;0.00;0.00;0.62;10.77;9.67;;;24.70;23.50;;;;;;2264172;61;20802;-66
2024/03/04 02:42:32;0.00;0.00;0.62;0.00;0.00;0.62;10.13;8.83;;;24.70;23.50;;;;;;2264176;61;20417;-66
2024/03/04 02:45:17;0.00;0.00;0.62;0.00;0.00;0.62;10.40;9.30;;;24.60;23.40;;;;;;2263787;61;20388;-66
2024/03/04 02:48:01;0.00;0.00;0.62;0.00;0.00;0.62;9.80;7.77;;;24.60;23.40;;;;;;2264050;61;20683;-66
2024/03/04 02:50:46;0.00;0.00;0.62;0.00;0.00;0.62;11.20;8.83;;;24.60;23.40;;;;;;2265489;61;20402;-67
2024/03/04 02:53:31;0.00;0.00;0.62;0.00;0.00;0.62;10.83;9.70;;;24.60;23.40;;;;;;2264475;61;20482;-66
2024/03/04 02:56:17;0.00;0.00;0.62;0.00;0.00;0.62;9.97;8.67;;;24.60;23.40;;;;;;2263915;61;20935;-66
2024/03/04 02:59:01;0.00;0.00;0.62;0.00;0.00;0.62;11.07;9.37;;;24.60;23.40;;;;;;2263116;61;20994;-66
2024/03/04 03:01:48;0.00;0.00;0.62;0.00;0.00;0.62;9.57;8.57;;;24.60;23.40;;;;;;2264615;61;20387;-68
2024/03/04 03:04:32;0.00;0.00;0.62;0.00;0.00;0.62;9.10;7.60;;;24.60;23.40;;;;;;2264356;61;20360;-66
2024/03/04 03:07:17;0.00;0.00;0.62;0.00;0.00;0.62;10.80;8.70;;;24.60;23.40;;;;;;2264530;61;20908;-67
2024/03/04 03:10:03;0.00;0.00;0.62;0.00;0.00;0.62;10.40;8.30;;;24.60;23.40;;;;;;2258691;61;20866;-66
2024/03/04 03:12:49;0.00;0.00;0.62;0.00;0.00;0.62;8.73;7.83;;;24.50;23.40;;;;;;2264653;61;20839;-67
2024/03/04 03:15:33;0.00;0.00;0.62;0.00;0.00;0.62;10.30;7.83;;;24.60;23.50;;;;;;2261300;61;20846;-67
2024/03/04 03:18:18;0.00;0.00;0.62;0.00;0.00;0.62;8.60;7.70;;;24.50;23.40;;;;;;2264557;61;20885;-66
2024/03/04 03:21:04;0.00;0.00;0.62;0.00;0.00;0.62;9.07;8.07;;;24.50;23.40;;;;;;2263963;61;20419;-66
2024/03/04 03:23:51;0.00;0.00;0.62;0.00;0.00;0.62;9.10;7.50;;;24.50;23.40;;;;;;2787653;45;20352;-66
2024/03/04 03:26:36;0.00;0.00;0.62;0.00;0.00;0.62;9.83;7.20;;;24.50;23.40;;;;;;2264577;61;20686;-68
2024/03/04 03:29:22;0.00;0.00;0.62;0.00;0.00;0.62;8.53;7.63;;;24.50;23.40;;;;;;2264536;61;20873;-68
2024/03/04 03:32:07;0.00;0.00;0.62;0.00;0.00;0.62;7.37;6.53;;;24.50;23.40;;;;;;2264491;61;20352;-68
2024/03/04 03:34:52;0.00;0.00;0.62;0.00;0.00;0.62;8.80;7.80;;;24.50;23.40;;;;;;2264685;61;20387;-68
2024/03/04 03:37:36;0.00;0.00;0.62;0.00;0.00;0.62;8.40;7.60;;;24.40;23.40;;;;;;2264524;61;20372;-67
2024/03/04 03:40:21;0.00;0.00;0.62;0.00;0.00;0.62;7.57;6.80;;;24.40;23.40;;;;;;2264547;61;20411;-68
2024/03/04 03:43:06;0.00;0.00;0.62;0.00;0.00;0.62;7.67;6.87;;;24.50;23.40;;;;;;2264595;61;20817;-67
2024/03/04 03:45:52;0.00;0.00;0.62;0.00;0.00;0.62;8.93;7.60;;;24.40;23.40;;;;;;2266059;57;20485;-67
2024/03/04 03:48:36;0.00;0.00;0.62;0.00;0.00;0.62;9.23;7.13;;;24.40;23.40;;;;;;2264722;61;20866;-67
2024/03/04 03:51:21;0.00;0.00;0.62;0.00;0.00;0.62;7.33;6.57;;;24.40;23.40;;;;;;2264654;61;20403;-67
2024/03/04 03:54:07;0.00;0.00;0.62;0.00;0.00;0.62;8.00;6.97;;;24.40;23.40;;;;;;2264648;61;20419;-68
2024/03/04 03:56:51;0.00;0.00;0.62;0.00;0.00;0.62;7.63;6.83;;;24.40;23.40;;;;;;2264516;61;20360;-67
2024/03/04 03:59:36;0.00;0.00;0.62;0.00;0.00;0.62;7.87;7.07;;;24.40;23.40;;;;;;2264379;61;20367;-67
2024/03/04 04:02:25;0.00;0.00;0.62;0.00;0.00;0.62;7.50;6.80;;;24.40;23.40;;;;;;2264750;61;20387;-67
2024/03/04 04:05:09;0.00;0.00;0.62;0.00;0.00;0.62;8.20;7.20;;;24.30;23.40;;;;;;2264677;61;20979;-68
2024/03/04 04:07:54;0.00;0.00;0.62;0.00;0.00;0.62;7.70;6.90;;;24.30;23.40;;;;;;2264464;61;20869;-67
2024/03/04 04:10:39;0.00;0.00;0.62;0.00;0.00;0.62;7.83;6.60;;;24.30;23.40;;;;;;2264353;61;20757;-67
2024/03/04 04:13:24;0.00;0.00;0.62;0.00;0.00;0.62;9.17;7.37;;;24.30;23.40;;;;;;2264374;61;21044;-67
2024/03/04 04:16:09;0.00;0.00;0.62;0.00;0.00;0.62;6.47;5.77;;;24.30;23.40;;;;;;2264495;61;20794;-67
2024/03/04 04:18:55;0.00;0.00;0.62;0.00;0.00;0.62;7.17;6.47;;;24.30;23.40;;;;;;2264629;61;20433;-67
2024/03/04 04:21:40;0.00;0.00;0.62;0.00;0.00;0.62;6.97;6.13;;;24.30;23.40;;;;;;2263201;61;20453;-67
2024/03/04 04:24:25;0.00;0.00;0.62;0.00;0.00;0.62;7.27;5.97;;;24.30;23.40;;;;;;2264928;61;20385;-67
2024/03/04 04:27:10;0.00;0.00;0.62;0.00;0.00;0.62;7.50;6.30;;;24.30;23.40;;;;;;2264512;61;20854;-67
2024/03/04 04:29:54;0.00;0.00;0.62;0.00;0.00;0.62;6.93;6.23;;;24.20;23.40;;;;;;2264405;61;20418;-68
2024/03/04 04:32:39;0.00;0.00;0.62;0.00;0.00;0.62;7.60;6.90;;;24.30;23.40;;;;;;2264214;61;20411;-67
2024/03/04 04:35:25;0.00;0.00;0.62;0.00;0.00;0.62;7.40;6.17;;;24.20;23.30;;;;;;2264323;61;20400;-67
2024/03/04 04:38:10;0.00;0.00;0.62;0.00;0.00;0.62;6.47;5.77;;;24.20;23.30;;;;;;2264698;61;20816;-68
2024/03/04 04:40:56;0.00;0.00;0.62;0.00;0.00;0.62;7.17;5.67;;;24.20;23.90;;;;;;2264563;61;20375;-67
2024/03/04 04:43:41;0.00;0.00;0.62;0.00;0.00;0.62;6.97;6.20;;;24.20;23.40;;;;;;2264630;61;20433;-67
2024/03/04 04:46:25;0.00;0.00;0.62;0.00;0.00;0.62;6.60;6.00;;;24.20;23.40;;;;;;2264564;61;20391;-67
2024/03/04 04:49:10;0.00;0.00;0.62;0.00;0.00;0.62;7.33;6.30;;;24.20;23.40;;;;;;2264461;61;20363;-67
2024/03/04 04:51:56;0.00;0.00;0.62;0.00;0.00;0.62;8.03;6.50;;;24.20;23.40;;;;;;2264576;61;20356;-67
2024/03/04 04:54:43;0.00;0.00;0.62;0.00;0.00;0.62;7.73;6.37;;;24.20;23.40;;;;;;2264398;61;20913;-67
2024/03/04 04:57:28;0.00;0.00;0.62;0.00;0.00;0.62;6.73;6.03;;;24.20;23.40;;;;;;2264464;61;20928;-67
2024/03/04 05:00:15;0.00;0.00;0.62;0.00;0.00;0.62;7.50;6.50;;;24.10;23.30;;;;;;2264507;61;20511;-67
2024/03/04 05:03:00;0.00;0.00;0.62;0.00;0.00;0.62;6.97;6.00;;;24.20;23.40;;;;;;2264692;61;20399;-67
2024/03/04 05:05:44;0.00;0.00;0.62;0.00;0.00;0.62;7.67;6.60;;;24.10;23.30;;;;;;2264216;61;20441;-67
2024/03/04 05:08:30;0.00;0.00;0.62;0.00;0.00;0.62;6.40;5.80;;;24.10;23.30;;;;;;2264567;61;20352;-67
2024/03/04 05:11:15;0.00;0.00;0.62;0.00;0.00;0.62;6.40;5.50;;;24.10;23.30;;;;;;2264507;61;20400;-67
2024/03/04 05:14:00;0.00;0.00;0.62;0.00;0.00;0.62;6.80;6.17;;;24.10;23.40;;;;;;2264259;61;20410;-68
2024/03/04 05:16:45;0.00;0.00;0.62;0.00;0.00;0.62;6.40;5.80;;;24.10;23.30;;;;;;2263902;61;20379;-67
2024/03/04 05:19:35;0.00;0.00;0.62;0.00;0.00;0.62;7.37;6.10;;;24.10;23.40;;;;;;2264470;61;20904;-67
2024/03/04 05:22:20;0.00;0.00;0.62;0.00;0.00;0.62;5.83;5.10;;;24.10;23.90;;;;;;2536035;53;20432;-67
2024/03/04 05:25:08;0.00;0.00;0.62;0.00;0.00;0.62;6.47;5.53;;;24.10;23.30;;;;;;2264267;61;20810;-68
2024/03/04 05:27:52;0.00;0.00;0.62;0.00;0.00;0.62;6.40;5.80;;;24.10;23.40;;;;;;2264161;61;20498;-67
2024/03/04 05:30:37;0.00;0.00;0.62;0.00;0.00;0.62;8.80;6.63;;;24.10;23.30;;;;;;2264521;61;20348;-67
2024/03/04 05:33:22;0.00;0.00;0.62;0.00;0.00;0.62;6.40;5.80;;;24.10;23.40;;;;;;2264411;61;20400;-68
2024/03/04 05:36:10;0.00;0.00;0.62;0.00;0.00;0.62;6.70;6.00;;;24.10;23.40;;;;;;2264339;61;20423;-67
2024/03/04 05:38:55;0.00;0.00;0.62;0.00;0.00;0.62;6.07;5.37;;;24.10;23.30;;;;;;2264485;61;20387;-67
2024/03/04 05:41:41;0.00;0.00;0.62;0.00;0.00;0.62;6.97;5.90;;;24.10;23.30;;;;;;2264415;61;20503;-67
2024/03/04 05:44:26;0.00;0.00;0.62;0.00;0.00;0.62;5.90;5.30;;;24.10;23.30;;;;;;2501697;53;20400;-68
2024/03/04 05:47:10;0.00;0.00;0.62;0.00;0.00;0.62;6.40;5.63;;;24.00;23.80;;;;;;2264739;61;20510;-68
2024/03/04 05:49:55;0.00;0.00;0.62;0.00;0.00;0.62;7.30;6.20;;;24.00;23.30;;;;;;2264496;61;20372;-67
2024/03/04 05:52:39;0.00;0.00;0.62;0.00;0.00;0.62;7.57;6.10;;;24.00;23.30;;;;;;2264240;61;20344;-67
2024/03/04 05:55:25;0.00;0.00;0.62;0.00;0.00;0.62;6.03;5.43;;;24.10;23.30;;;;;;2264238;61;20426;-67
2024/03/04 05:58:11;0.00;0.00;0.62;0.00;0.00;0.62;5.80;5.00;;;24.00;23.30;;;;;;2264187;61;20877;-67
2024/03/04 06:00:56;0.00;0.00;0.62;0.00;0.00;0.62;6.23;5.60;;;24.00;23.30;;;;;;2264671;61;20412;-67
2024/03/04 06:03:41;0.00;0.00;0.62;0.00;0.00;0.62;7.53;6.30;;;24.00;23.30;;;;;;2264515;61;20901;-67
2024/03/04 06:06:26;0.00;0.00;0.62;0.00;0.00;0.62;5.87;5.27;;;24.00;23.80;;;;;;2513564;53;20385;-67
2024/03/04 06:09:13;0.00;0.00;0.62;0.00;0.00;0.62;5.90;5.33;;;24.00;23.30;;;;;;2260391;61;20399;-67
2024/03/04 06:11:57;0.00;0.00;0.62;0.00;0.00;0.62;6.20;5.60;;;24.00;23.30;;;;;;2261284;61;20398;-67
2024/03/04 06:14:43;0.00;0.00;0.62;0.00;0.00;0.62;6.40;5.60;;;24.00;23.30;;;;;;2264323;61;20418;-68
2024/03/04 06:17:28;0.00;0.00;0.62;0.00;0.00;0.62;6.20;5.27;;;24.00;23.30;;;;;;2264351;61;20895;-67
2024/03/04 06:20:13;0.00;0.00;0.62;0.00;0.00;0.62;9.03;5.70;;;24.00;23.30;;;;;;2263608;61;22312;-68
2024/03/04 06:22:57;0.00;0.00;0.62;0.00;0.00;0.62;5.27;4.77;;;24.00;23.30;;;;;;2263715;61;20405;-67
2024/03/04 06:25:42;0.00;0.00;0.62;0.00;0.00;0.62;6.87;5.20;;;24.00;23.30;;;;;;2263578;61;20442;-67
2024/03/04 06:28:27;0.00;0.00;0.62;0.00;0.00;0.62;6.23;5.03;;;23.90;23.20;;;;;;2263093;61;20363;-67
2024/03/04 06:31:13;0.00;0.00;0.62;0.00;0.00;0.62;5.50;4.97;;;23.90;23.20;;;;;;2263513;61;20384;-67
2024/03/04 06:33:57;0.00;0.00;0.62;0.00;0.00;0.62;6.53;5.87;;;23.90;23.20;;;;;;2263766;61;20359;-67
2024/03/04 06:36:42;0.00;0.00;0.62;0.00;0.00;0.62;5.57;4.90;;;23.90;23.20;;;;;;2264452;61;20392;-67
2024/03/04 06:39:27;0.00;0.00;0.62;0.00;0.00;0.62;6.60;5.20;;;23.90;23.20;;;;;;2264373;61;20379;-67
2024/03/04 06:42:12;0.00;0.00;0.62;0.00;0.00;0.62;6.43;5.47;;;23.90;23.20;;;;;;2264133;61;20387;-67
2024/03/04 06:44:56;0.00;0.00;0.62;0.00;0.00;0.62;6.37;5.70;;;23.90;23.30;;;;;;2264230;61;20379;-67
2024/03/04 06:47:42;0.00;0.00;0.62;0.00;0.00;0.62;5.07;4.57;;;23.90;23.20;;;;;;2263978;61;20441;-67
2024/03/04 06:50:27;0.00;0.00;0.62;0.00;0.00;0.62;5.83;5.23;;;23.90;23.20;;;;;;2264378;61;20871;-67
2024/03/04 06:53:12;0.00;0.00;0.62;0.00;0.00;0.62;5.80;5.10;;;23.90;23.20;;;;;;2264946;61;20375;-67
2024/03/04 06:55:57;0.00;0.00;0.62;0.00;0.00;0.62;6.63;5.50;;;23.90;23.20;;;;;;2264589;61;20430;-67
2024/03/04 06:58:42;0.00;0.00;0.62;0.00;0.00;0.62;7.20;5.50;;;23.90;23.20;;;;;;2264734;61;20542;-67
2024/03/04 07:01:28;0.00;0.00;0.62;0.00;0.00;0.62;6.37;5.77;;;23.90;23.30;;;;;;2264791;61;20483;-67
2024/03/04 07:04:14;0.00;0.00;0.62;0.00;0.00;0.62;7.50;6.63;;;23.90;23.30;;;;;;2264661;61;20526;-67
2024/03/04 07:06:59;0.00;0.00;0.62;0.00;0.00;0.62;5.90;5.30;;;23.90;23.30;;;;;;2264699;61;20397;-67
2024/03/04 07:09:44;0.00;0.00;0.62;0.00;0.00;0.62;6.50;5.80;;;23.90;23.30;;;;;;2264879;61;20356;-67
2024/03/04 07:12:29;0.00;0.00;0.62;0.00;0.00;0.62;5.73;5.17;;;23.90;23.30;;;;;;2264780;61;20471;-66
2024/03/04 07:15:13;0.00;0.00;0.62;0.00;0.00;0.62;6.37;5.50;;;23.90;23.30;;;;;;2264794;61;20391;-67
2024/03/04 07:17:58;0.00;0.00;0.62;0.00;0.00;0.62;7.63;6.40;;;23.80;23.20;;;;;;2264824;61;20372;-67
2024/03/04 07:20:43;0.00;0.00;0.62;0.00;0.00;0.62;6.50;5.90;;;23.90;23.30;;;;;;2777151;45;20535;-67
2024/03/04 07:23:28;0.00;0.00;0.62;0.00;0.00;0.62;7.40;5.87;;;23.80;23.30;;;;;;2260628;61;20372;-68
2024/03/04 07:26:13;0.00;0.00;0.62;0.00;0.00;0.62;6.10;5.13;;;23.80;23.30;;;;;;2261779;61;20475;-68
2024/03/04 07:28:57;0.00;0.00;0.62;0.00;0.00;0.62;7.27;6.47;;;23.80;23.30;;;;;;2264932;61;20865;-67
2024/03/04 07:31:44;0.00;0.00;0.62;0.00;0.00;0.62;6.53;5.90;;;23.80;23.30;;;;;;2264540;61;20924;-68
2024/03/04 07:34:28;0.00;0.00;0.62;0.00;0.00;0.62;7.20;5.90;;;23.80;23.30;;;;;;2264126;61;20375;-67
2024/03/04 07:37:15;0.00;0.00;0.62;0.00;0.00;0.62;6.93;6.23;;;23.80;23.80;;;;;;2264339;61;20349;-67
2024/03/04 07:40:00;0.00;0.00;0.62;0.00;0.00;0.62;6.87;6.27;;;23.80;23.30;;;;;;2264345;61;20348;-68
2024/03/04 07:42:45;0.00;0.00;0.62;0.00;0.00;0.62;7.23;6.53;;;23.80;23.30;;;;;;2783127;45;20464;-67
2024/03/04 07:45:29;0.00;0.00;0.62;0.00;0.00;0.62;6.00;5.40;;;23.80;23.30;;;;;;2264129;61;20936;-67
2024/03/04 07:48:14;0.00;0.00;0.62;0.00;0.00;0.62;7.83;6.20;;;23.80;23.30;;;;;;2263920;61;20935;-67
2024/03/04 07:50:58;0.00;0.00;0.62;0.00;0.00;0.62;6.80;5.80;;;23.80;23.30;;;;;;2264178;61;20423;-67
2024/03/04 07:53:45;0.00;0.00;0.62;0.00;0.00;0.62;6.60;5.90;;;23.80;23.30;;;;;;2263932;61;20514;-67
2024/03/04 07:56:30;0.00;0.00;0.62;0.00;0.00;0.62;6.67;5.90;;;23.80;23.30;;;;;;2263985;61;20445;-67
2024/03/04 07:59:15;0.00;0.00;0.62;0.00;0.00;0.62;6.43;5.60;;;23.80;23.30;;;;;;2264246;61;20383;-68
2024/03/04 08:02:00;0.00;0.00;0.62;0.00;0.00;0.62;8.33;6.97;;;23.80;23.30;;;;;;2264180;61;20388;-67
2024/03/04 08:04:44;0.00;0.00;0.62;0.00;0.00;0.62;6.00;5.40;;;23.80;23.30;;;;;;2260807;61;20449;-67
2024/03/04 08:07:29;0.00;0.00;0.62;0.00;0.00;0.62;5.93;5.33;;;23.80;23.40;;;;;;2264335;61;20391;-68
2024/03/04 08:10:16;0.00;0.00;0.62;0.00;0.00;0.62;6.50;5.90;;;23.80;23.40;;;;;;2264109;61;20847;-67
2024/03/04 08:13:01;0.00;0.00;0.62;0.00;0.00;0.62;6.30;5.57;;;23.80;23.40;;;;;;2264146;61;20349;-67
2024/03/04 08:15:48;0.00;0.00;0.62;0.00;0.00;0.62;6.60;6.00;;;23.80;23.40;;;;;;2264154;61;20383;-67
2024/03/04 08:18:33;0.00;0.00;0.62;0.00;0.00;0.62;6.60;6.00;;;23.80;23.40;;;;;;2264249;61;20442;-68
2024/03/04 08:21:18;0.00;0.00;0.62;0.00;0.00;0.62;6.00;5.27;;;23.80;23.40;;;;;;2264147;61;20430;-67
2024/03/04 08:24:03;0.00;0.00;0.62;0.00;0.00;0.62;6.13;5.53;;;23.80;23.40;;;;;;2264073;61;20422;-67
2024/03/04 08:26:49;0.00;0.00;0.62;0.00;0.00;0.62;6.73;6.13;;;23.80;23.40;;;;;;2264055;61;20368;-67
2024/03/04 08:29:34;0.00;0.00;0.62;0.00;0.00;0.62;6.80;6.10;;;23.70;23.30;;;;;;2263813;61;20398;-68
2024/03/04 08:32:18;0.00;0.00;0.62;0.00;0.00;0.62;6.77;6.07;;;23.80;23.90;;;;;;2263537;61;20352;-67
2024/03/04 08:35:03;0.00;0.00;0.62;0.00;0.00;0.62;6.90;5.43;;;23.70;23.40;;;;;;2263811;61;20415;-68
2024/03/04 08:37:48;0.00;0.00;0.62;0.00;0.00;0.62;6.07;5.40;;;23.70;23.40;;;;;;2263767;61;20445;-68
2024/03/04 08:40:32;0.00;0.00;0.62;0.00;0.00;0.62;7.13;5.67;;;23.80;23.40;;;;;;2263658;61;20384;-68
2024/03/04 08:43:19;0.00;0.00;0.62;0.00;0.00;0.62;5.93;4.93;;;23.70;23.40;;;;;;2283862;48;20395;-67
2024/03/04 08:46:04;0.00;0.00;0.62;0.00;0.00;0.62;6.13;5.53;;;23.70;23.40;;;;;;2267572;61;20379;-68
2024/03/04 08:48:49;0.00;0.00;0.62;0.00;0.00;0.62;6.83;6.13;;;23.70;23.40;;;;;;2267980;61;20379;-68
2024/03/04 08:51:33;0.00;0.00;0.62;0.00;0.00;0.62;6.10;5.50;;;23.70;23.40;;;;;;2267615;61;20768;-68
2024/03/04 08:54:18;0.00;0.00;0.62;0.00;0.00;0.62;5.87;5.33;;;23.70;23.40;;;;;;2264089;61;20391;-67
2024/03/04 08:57:05;0.00;0.00;0.62;0.00;0.00;0.62;6.53;5.83;;;23.70;23.40;;;;;;2263998;61;20363;-68
2024/03/04 08:59:52;0.00;0.00;0.62;0.00;0.00;0.62;6.23;5.63;;;23.70;23.50;;;;;;2263712;61;20760;-68
2024/03/04 09:02:37;0.00;0.00;0.62;0.00;0.00;0.62;7.00;5.80;;;23.70;23.40;;;;;;2263920;61;20976;-68
2024/03/04 09:05:21;0.00;0.00;0.62;0.00;0.00;0.62;6.07;5.07;;;23.70;23.50;;;;;;2263818;61;20452;-68
2024/03/04 09:08:07;0.00;0.00;0.62;0.00;0.00;0.62;5.97;5.40;;;23.70;23.50;;;;;;2264042;61;20765;-68
2024/03/04 09:10:54;0.00;0.00;0.62;0.00;0.00;0.62;6.77;5.97;;;23.70;23.50;;;;;;2264022;61;20376;-68
2024/03/04 09:13:39;0.00;0.00;0.62;0.00;0.00;0.62;6.87;5.70;;;23.70;23.50;;;;;;2264171;61;20509;-67
2024/03/04 09:16:25;0.00;0.00;0.62;0.00;0.00;0.62;6.07;5.47;;;23.70;23.50;;;;;;2264020;61;20368;-69
2024/03/04 09:19:13;0.00;0.00;0.62;0.00;0.00;0.62;7.30;5.90;;;23.70;23.50;;;;;;2263746;61;20372;-67
2024/03/04 09:21:57;0.00;0.00;0.62;0.00;0.00;0.62;6.27;5.57;;;23.70;23.50;;;;;;2263835;61;20468;-67
2024/03/04 09:24:43;0.00;0.00;0.62;0.00;0.00;0.62;5.60;5.10;;;23.70;23.50;;;;;;2263690;61;20409;-67
2024/03/04 09:27:27;0.00;0.00;0.62;0.00;0.00;0.62;7.53;6.47;;;23.70;24.00;;;;;;2263920;61;20395;-67
2024/03/04 09:30:13;0.00;0.00;0.62;0.00;0.00;0.62;8.30;6.10;;;23.70;23.50;;;;;;2264038;61;20368;-67
2024/03/04 09:32:59;0.00;0.00;0.62;0.00;0.00;0.62;7.07;5.97;;;23.70;23.50;;;;;;2263643;61;20822;-66
2024/03/04 09:35:44;0.00;0.00;0.62;0.00;0.00;0.62;7.47;6.37;;;23.70;23.50;;;;;;2264009;61;20365;-68
2024/03/04 09:38:28;0.00;0.00;0.62;0.00;0.00;0.62;7.43;6.30;;;23.70;23.50;;;;;;2263957;61;20380;-67
2024/03/04 09:41:13;0.00;0.00;0.62;0.00;0.00;0.62;7.57;6.07;;;23.80;23.60;;;;;;2728744;45;20387;-67
2024/03/04 09:43:57;0.00;0.00;0.62;0.00;0.00;0.62;7.50;6.33;;;23.80;23.60;;;;;;2264997;61;20805;-67
2024/03/04 09:46:44;0.00;0.00;0.62;0.00;0.00;0.62;7.13;6.10;;;23.80;23.60;;;;;;2265341;61;20403;-67
2024/03/04 09:49:30;0.00;0.00;0.62;0.00;0.00;0.62;6.97;6.30;;;23.80;23.60;;;;;;2265316;61;20592;-68
2024/03/04 09:52:17;0.00;0.00;0.62;0.00;0.00;0.62;6.50;5.40;;;23.80;23.60;;;;;;2265490;61;20499;-67
2024/03/04 09:55:04;0.00;0.00;0.62;0.00;0.00;0.62;7.67;6.83;;;23.80;23.60;;;;;;2262346;61;20402;-67
2024/03/04 09:57:49;0.00;0.00;0.62;0.00;0.00;0.62;8.30;6.50;;;23.80;23.60;;;;;;2260942;61;20595;-70
2024/03/04 10:00:35;0.00;0.00;0.62;0.00;0.00;0.62;6.60;5.20;;;23.80;23.60;;;;;;2261569;61;20795;-67
2024/03/04 10:03:20;0.00;0.00;0.62;0.00;0.00;0.62;6.60;5.80;;;23.80;23.60;;;;;;2561208;45;20758;-67
2024/03/04 10:06:06;0.00;0.00;0.62;0.00;0.00;0.62;6.40;5.73;;;23.80;23.60;;;;;;2259894;61;20774;-67
2024/03/04 10:08:51;0.00;0.00;0.62;0.00;0.00;0.62;6.40;5.73;;;23.80;23.60;;;;;;2259337;61;20365;-67
2024/03/04 10:11:36;0.00;0.00;0.62;0.00;0.00;0.62;7.57;6.00;;;23.80;23.70;;;;;;2259858;61;20870;-67
2024/03/04 10:14:22;0.00;0.00;0.62;0.00;0.00;0.62;6.00;5.23;;;23.80;23.70;;;;;;2256359;61;20436;-67
2024/03/04 10:17:07;0.00;0.00;0.62;0.00;0.00;0.62;7.70;5.70;;;23.80;23.70;;;;;;2262469;61;20469;-67
2024/03/04 10:19:58;0.00;0.00;0.62;0.00;0.00;0.62;7.30;6.10;;;23.80;23.70;;;;;;2263662;61;20920;-67
2024/03/04 10:22:44;0.00;0.00;0.62;0.00;0.00;0.62;6.90;6.10;;;23.80;23.70;;;;;;2263876;61;20384;-67
2024/03/04 10:25:29;0.00;0.00;0.62;0.00;0.00;0.62;6.40;5.80;;;23.80;23.70;;;;;;2500759;53;20863;-67
2024/03/04 10:28:14;0.00;0.00;0.62;0.00;0.00;0.62;6.90;5.90;;;23.80;23.70;;;;;;2263709;61;21110;-67
2024/03/04 10:31:07;0.00;0.00;0.62;0.00;0.00;0.62;7.10;6.13;;;23.80;23.70;;;;;;2262279;61;20384;-67
2024/03/04 10:33:54;0.00;0.00;0.62;0.00;0.00;0.62;6.07;5.13;;;23.80;23.70;;;;;;2256416;61;20384;-68
2024/03/04 10:36:40;0.00;0.00;0.62;0.00;0.00;0.62;6.20;5.37;;;23.80;23.70;;;;;;2256637;61;20416;-67
2024/03/04 10:39:29;0.00;0.00;0.62;0.00;0.00;0.62;7.13;5.93;;;23.80;23.70;;;;;;2262180;61;20384;-67
2024/03/04 10:42:14;0.00;0.00;0.62;0.00;0.00;0.62;6.97;6.27;;;23.80;24.20;;;;;;2263729;61;20804;-67
2024/03/04 10:45:01;0.00;0.00;0.62;0.00;0.00;0.62;6.87;5.60;;;23.80;23.70;;;;;;2264063;61;20411;-67
2024/03/04 10:47:46;0.00;0.00;0.62;0.00;0.00;0.62;7.20;6.17;;;23.80;23.70;;;;;;2502839;53;20360;-66
2024/03/04 10:50:30;0.00;0.00;0.62;0.00;0.00;0.62;6.40;5.40;;;23.80;23.70;;;;;;2260497;61;20415;-67
2024/03/04 10:53:15;0.00;0.00;0.62;0.00;0.00;0.62;6.97;6.20;;;23.90;23.80;;;;;;2259996;61;20651;-67